Time;durP1;ratioP1;P1;durP2;ratioP2;P2;SDS_P1;SDS_P2;PMS_P1;PMS_P2;Temp;Humidity;BMP_temperature;BMP_pressure;BME280_temperature;BME280_humidity;BME280_pressure;Samples;Min_cycle;Max_cycle;Signal;HPM_P1;HPM_P2
2021/09/06 00:13:36;;;;;;;35.50;14.00;;;;;;;8.40;91.58;101591.20;716340;1200;113723;-77
2021/09/06 00:28:38;;;;;;;290.00;86.43;;;;;;;8.33;91.68;101582.04;716544;1203;113508;-77
2021/09/06 00:43:43;;;;;;;44.28;19.45;;;;;;;8.10;92.00;101589.44;716314;1200;114591;-77
2021/09/06 00:58:46;;;;;;;22.98;11.45;;;;;;;7.98;92.00;101600.56;716342;1199;114283;-77
2021/09/06 01:13:49;;;;;;;23.93;11.03;;;;;;;7.89;92.80;101595.85;716393;1194;114213;-77
2021/09/06 01:28:52;;;;;;;24.27;10.30;;;;;;;7.70;93.49;101607.33;716371;1200;113563;-75
2021/09/06 01:43:54;;;;;;;23.58;11.55;;;;;;;7.54;94.13;101604.70;716363;1200;114261;-75
2021/09/06 01:58:57;;;;;;;28.60;11.60;;;;;;;7.52;93.74;101603.94;716359;1199;114305;-77
2021/09/06 02:14:00;;;;;;;26.03;12.48;;;;;;;7.25;94.51;101609.72;715862;1176;114331;-76
2021/09/06 02:29:04;;;;;;;29.75;12.98;;;;;;;7.25;94.30;101607.11;715802;1200;114280;-76
2021/09/06 02:44:06;;;;;;;25.98;9.93;;;;;;;7.06;94.18;101609.86;715828;1177;114722;-75
2021/09/06 02:59:08;;;;;;;26.08;10.55;;;;;;;6.90;94.57;101609.81;715858;1183;113601;-76
2021/09/06 03:14:10;;;;;;;8.78;4.60;;;;;;;6.85;95.42;101590.95;715882;1199;113838;-75
2021/09/06 03:29:12;;;;;;;19.40;9.00;;;;;;;6.66;95.56;101584.06;715899;1176;113497;-75
2021/09/06 03:44:14;;;;;;;12.70;6.60;;;;;;;6.53;95.78;101593.40;715816;1190;114176;-75
2021/09/06 03:59:18;;;;;;;15.65;6.83;;;;;;;6.43;95.98;101593.03;715791;1177;114358;-76
2021/09/06 04:14:22;;;;;;;11.98;6.40;;;;;;;6.35;96.39;101591.72;716041;1199;114519;-75
2021/09/06 04:29:25;;;;;;;20.15;6.83;;;;;;;6.39;96.62;101590.64;716743;1176;113226;-76
2021/09/06 04:44:27;;;;;;;12.87;6.27;;;;;;;6.43;97.26;101600.02;716277;1199;113639;-75
2021/09/06 04:59:29;;;;;;;20.60;9.55;;;;;;;6.63;97.79;101612.05;715978;1199;113927;-76
2021/09/06 05:14:31;;;;;;;21.40;9.08;;;;;;;7.11;99.35;101617.44;717040;1165;112879;-77
2021/09/06 05:29:34;;;;;;;40.93;17.15;;;;;;;7.60;99.11;101611.36;713945;1199;114410;-73
2021/09/06 05:44:36;;;;;;;47.80;17.58;;;;;;;8.15;99.32;101626.58;713881;1201;114341;-75
2021/09/06 05:59:38;;;;;;;24.03;10.80;;;;;;;9.00;99.31;101628.73;714786;1203;114470;-75
2021/09/06 06:14:40;;;;;;;24.65;10.20;;;;;;;9.99;99.23;101622.63;714258;1203;114342;-81
2021/09/06 06:29:42;;;;;;;18.55;8.95;;;;;;;11.05;97.85;101612.13;714391;1177;113905;-82
2021/09/06 06:44:47;;;;;;;17.00;8.55;;;;;;;12.60;96.85;101628.23;714561;1199;114371;-81
2021/09/06 06:59:49;;;;;;;7.97;3.93;;;;;;;14.34;91.39;101638.40;715014;1177;114520;-82
2021/09/06 07:14:51;;;;;;;4.57;2.33;;;;;;;15.57;84.18;101650.91;715657;1177;114393;-76
2021/09/06 07:29:54;;;;;;;49.10;24.30;;;;;;;16.90;79.41;101661.02;716256;1200;115325;-75
2021/09/06 07:44:56;;;;;;;8.13;3.80;;;;;;;17.71;73.74;101651.63;719766;1177;113989;-76
2021/09/06 07:59:58;;;;;;;22.55;15.80;;;;;;;18.40;69.89;101654.63;714845;1177;114171;-76
2021/09/06 08:15:01;;;;;;;5.03;3.03;;;;;;;19.23;67.22;101655.20;714968;1200;114368;-78
2021/09/06 08:30:07;;;;;;;2.90;1.57;;;;;;;19.50;64.31;101662.11;715845;1188;114648;-79
2021/09/06 08:45:12;;;;;;;3.77;2.20;;;;;;;19.77;62.22;101660.22;715270;1200;115470;-80
2021/09/06 09:00:29;;;;;;;2.23;1.20;;;;;;;20.08;60.16;101660.45;714771;1200;113595;-79
2021/09/06 09:15:33;;;;;;;1.60;1.03;;;;;;;20.82;57.41;101653.47;714730;1199;115381;-80
2021/09/06 09:30:36;;;;;;;5.60;3.93;;;;;;;21.17;56.13;101640.69;714304;1199;113902;-80
2021/09/06 09:45:39;;;;;;;2.10;1.40;;;;;;;21.63;54.67;101634.67;714334;1203;114859;-80
2021/09/06 10:00:45;;;;;;;1.73;1.23;;;;;;;22.22;53.73;101624.23;714679;1180;115576;-86
2021/09/06 10:16:02;;;;;;;3.68;1.50;;;;;;;22.30;52.58;101622.52;717278;1177;113986;-86
2021/09/06 10:31:05;;;;;;;2.33;0.85;;;;;;;22.65;51.70;101598.83;714625;1200;114189;-87
2021/09/06 10:46:08;;;;;;;2.00;1.20;;;;;;;22.28;51.03;101587.95;714797;1199;114680;-87
2021/09/06 11:01:11;;;;;;;2.65;1.10;;;;;;;23.09;49.86;101577.41;714399;1177;113891;-81
2021/09/06 11:16:16;;;;;;;1.63;0.90;;;;;;;23.69;49.96;101563.88;714786;1183;114018;-78
2021/09/06 11:31:20;;;;;;;3.13;1.53;;;;;;;23.54;48.92;101555.06;714984;1199;115650;-76
2021/09/06 11:46:23;;;;;;;2.93;1.17;;;;;;;23.89;47.63;101548.00;714503;1203;115348;-74
2021/09/06 12:01:27;;;;;;;2.73;1.15;;;;;;;24.51;47.36;101537.52;714173;1174;114553;-75
2021/09/06 12:16:32;;;;;;;3.63;1.40;;;;;;;24.35;47.61;101522.57;714229;1176;114169;-75
2021/09/06 12:31:51;;;;;;;1.93;1.40;;;;;;;25.62;46.90;101535.67;714367;1178;114097;-75
2021/09/06 12:46:54;;;;;;;2.28;1.10;;;;;;;25.85;45.81;101513.75;714227;1177;113840;-75
2021/09/06 13:01:56;;;;;;;1.33;1.17;;;;;;;25.01;43.88;101491.73;714200;1175;114027;-75
2021/09/06 13:16:59;;;;;;;5.15;1.55;;;;;;;25.06;44.48;101488.44;714609;1176;115306;-80
2021/09/06 13:32:05;;;;;;;5.75;1.75;;;;;;;25.96;43.51;101485.45;715515;1180;114199;-87
2021/09/06 13:47:08;;;;;;;2.15;1.48;;;;;;;26.52;43.67;101469.81;716061;1199;114140;-87
2021/09/06 14:02:11;;;;;;;1.43;1.08;;;;;;;28.84;42.31;101463.76;721418;1194;113977;-88
2021/09/06 14:17:14;;;;;;;7.73;5.40;;;;;;;31.71;41.09;101472.77;718108;1199;114843;-89
2021/09/06 14:32:16;;;;;;;2.30;1.08;;;;;;;37.36;36.35;101454.88;715426;1200;114771;-80
2021/09/06 14:47:20;;;;;;;1.47;0.87;;;;;;;38.57;34.82;101440.30;714359;1200;114726;-79
2021/09/06 15:02:23;;;;;;;2.90;1.20;;;;;;;39.03;33.52;101423.11;714506;1202;114034;-82
2021/09/06 15:17:27;;;;;;;2.50;1.40;;;;;;;30.49;36.68;101413.53;714576;1202;115893;-82
2021/09/06 15:32:29;;;;;;;1.73;1.23;;;;;;;27.08;39.12;101409.06;714392;1203;113991;-82
2021/09/06 15:47:34;;;;;;;4.70;1.68;;;;;;;24.70;41.34;101404.53;714577;1180;114442;-80
2021/09/06 16:02:40;;;;;;;;;;;;;;;24.28;44.10;101409.09;714536;1202;114946;-79
2021/09/06 16:17:44;;;;;;;26.20;13.73;;;;;;;22.54;44.94;101388.88;714830;1200;101792;-79
2021/09/06 16:32:46;;;;;;;52.28;32.13;;;;;;;21.24;47.36;101386.35;714531;1203;114343;-74
2021/09/06 16:47:48;;;;;;;11.25;9.33;;;;;;;20.39;50.01;101381.84;714410;1202;114392;-80
2021/09/06 17:02:55;;;;;;;9.63;3.98;;;;;;;19.25;51.85;101365.93;714553;1176;114046;-82
2021/09/06 17:17:58;;;;;;;41.98;18.10;;;;;;;18.46;55.46;101367.10;715518;1203;113857;-81
2021/09/06 17:33:00;;;;;;;63.23;41.03;;;;;;;17.81;57.83;101378.20;716255;1199;114607;-81
2021/09/06 17:48:03;;;;;;;32.83;20.80;;;;;;;17.02;60.92;101372.77;715861;1178;114344;-76
2021/09/06 18:03:06;;;;;;;13.33;8.58;;;;;;;16.53;62.48;101381.00;717748;1189;114399;-80
2021/09/06 18:18:09;;;;;;;28.90;16.25;;;;;;;16.21;64.45;101381.45;721434;1200;114876;-78
2021/09/06 18:33:12;;;;;;;105.28;49.60;;;;;;;15.79;66.92;101386.11;714331;1200;114904;-78
2021/09/06 18:48:15;;;;;;;144.13;67.50;;;;;;;15.59;70.03;101387.97;713956;1202;114995;-77
2021/09/06 19:03:19;;;;;;;156.82;73.58;;;;;;;15.32;71.73;101399.25;713795;1200;114535;-76
2021/09/06 19:18:21;;;;;;;86.13;39.03;;;;;;;14.97;72.71;101390.88;713807;1199;116456;-76
2021/09/06 19:33:24;;;;;;;90.18;43.30;;;;;;;14.58;74.21;101397.86;713883;1176;114338;-76
2021/09/06 19:48:25;;;;;;;97.10;49.80;;;;;;;14.29;75.46;101401.22;713869;1203;114295;-76
2021/09/06 20:03:28;;;;;;;107.05;47.53;;;;;;;14.03;77.07;101406.95;713946;1173;115254;-76
2021/09/06 20:18:32;;;;;;;67.50;30.77;;;;;;;13.70;77.62;101395.64;714424;1202;114596;-77
2021/09/06 20:33:55;;;;;;;73.55;32.50;;;;;;;13.52;79.77;101392.73;714442;1176;114866;-76
2021/09/06 20:48:57;;;;;;;65.90;31.63;;;;;;;13.35;80.81;101396.73;714136;1199;114417;-75
2021/09/06 21:04:01;;;;;;;121.88;48.55;;;;;;;13.26;81.71;101381.67;714487;1200;114387;-76
2021/09/06 21:19:03;;;;;;;60.13;28.83;;;;;;;13.07;83.84;101383.17;714151;1174;114479;-75
2021/09/06 21:34:07;;;;;;;73.43;37.65;;;;;;;13.04;84.86;101375.54;714064;1204;115187;-76
2021/09/06 21:49:09;;;;;;;106.65;48.55;;;;;;;12.97;86.35;101382.25;714944;1203;114366;-80
2021/09/06 22:04:11;;;;;;;76.20;30.10;;;;;;;12.92;86.34;101393.17;714966;1181;115094;-82
2021/09/06 22:19:14;;;;;;;75.15;33.60;;;;;;;12.73;87.07;101393.79;717656;1200;114398;-82
2021/09/06 22:34:16;;;;;;;46.20;22.55;;;;;;;12.61;88.46;101384.25;716966;1200;115380;-81
2021/09/06 22:49:18;;;;;;;55.63;25.40;;;;;;;12.40;89.06;101379.70;715487;1177;114372;-81
2021/09/06 23:04:20;;;;;;;68.03;29.87;;;;;;;12.23;90.57;101388.91;714750;1202;114360;-76
2021/09/06 23:19:23;;;;;;;51.35;23.00;;;;;;;12.14;91.01;101387.85;713808;1196;114839;-75
2021/09/06 23:34:25;;;;;;;30.60;15.43;;;;;;;12.13;91.42;101391.43;713846;1199;114785;-75
2021/09/06 23:49:27;;;;;;;18.80;8.67;;;;;;;11.78;90.63;101366.00;713809;1200;115846;-74
